sensor_id;sensor_type;location;lat;lon;timestamp;P1;durP1;ratioP1;P2;durP2;ratioP2
73421;SDS011;61637;47.760;-122.022;2022-09-12T00:00:01;41.5;;;27.2;;
73421;SDS011;61637;47.760;-122.022;2022-09-12T00:02:00;40.2;;;28.0;;
73421;SDS011;61637;47.760;-122.022;2022-09-12T00:04:01;43.6;;;27.9;;
73421;SDS011;61637;47.760;-122.022;2022-09-12T00:06:06;41.9;;;27.3;;
73421;SDS011;61637;47.760;-122.022;2022-09-12T00:08:00;44.8;;;28.0;;
73421;SDS011;61637;47.760;-122.022;2022-09-12T00:10:00;43.8;;;28.0;;
73421;SDS011;61637;47.760;-122.022;2022-09-12T00:12:01;43.8;;;27.6;;
73421;SDS011;61637;47.760;-122.022;2022-09-12T00:14:01;42.7;;;28.7;;
73421;SDS011;61637;47.760;-122.022;2022-09-12T00:16:01;43.3;;;27.5;;
73421;SDS011;61637;47.760;-122.022;2022-09-12T00:18:01;48.7;;;28.5;;
73421;SDS011;61637;47.760;-122.022;2022-09-12T00:20:01;43.7;;;29.7;;
73421;SDS011;61637;47.760;-122.022;2022-09-12T00:22:00;44.9;;;28.4;;
73421;SDS011;61637;47.760;-122.022;2022-09-12T00:24:01;44.6;;;29.4;;
73421;SDS011;61637;47.760;-122.022;2022-09-12T00:26:03;44.9;;;29.3;;
73421;SDS011;61637;47.760;-122.022;2022-09-12T00:28:01;43.2;;;27.7;;
73421;SDS011;61637;47.760;-122.022;2022-09-12T00:30:00;45.4;;;28.3;;
73421;SDS011;61637;47.760;-122.022;2022-09-12T00:32:01;39.4;;;26.7;;
73421;SDS011;61637;47.760;-122.022;2022-09-12T00:34:01;44.3;;;28.9;;
73421;SDS011;61637;47.760;-122.022;2022-09-12T00:36:05;42.9;;;28.1;;
73421;SDS011;61637;47.760;-122.022;2022-09-12T00:38:00;43.4;;;28.7;;
73421;SDS011;61637;47.760;-122.022;2022-09-12T00:40:02;44.4;;;28.7;;
73421;SDS011;61637;47.760;-122.022;2022-09-12T00:42:02;44.7;;;28.5;;
73421;SDS011;61637;47.760;-122.022;2022-09-12T00:44:03;49.2;;;29.8;;
73421;SDS011;61637;47.760;-122.022;2022-09-12T00:46:03;43.4;;;28.4;;
73421;SDS011;61637;47.760;-122.022;2022-09-12T00:48:02;49.0;;;29.7;;
73421;SDS011;61637;47.760;-122.022;2022-09-12T00:50:06;46.4;;;29.4;;
73421;SDS011;61637;47.760;-122.022;2022-09-12T00:52:05;44.4;;;28.4;;
73421;SDS011;61637;47.760;-122.022;2022-09-12T00:54:04;44.5;;;28.6;;
73421;SDS011;61637;47.760;-122.022;2022-09-12T00:56:01;46.1;;;28.7;;
73421;SDS011;61637;47.760;-122.022;2022-09-12T00:58:03;48.0;;;29.0;;
73421;SDS011;61637;47.760;-122.022;2022-09-12T01:00:05;45.6;;;28.8;;
73421;SDS011;61637;47.760;-122.022;2022-09-12T01:02:00;42.9;;;28.5;;
73421;SDS011;61637;47.760;-122.022;2022-09-12T01:04:01;47.0;;;28.6;;
73421;SDS011;61637;47.760;-122.022;2022-09-12T01:06:04;43.9;;;27.8;;
73421;SDS011;61637;47.760;-122.022;2022-09-12T01:08:02;48.0;;;28.7;;
73421;SDS011;61637;47.760;-122.022;2022-09-12T01:10:01;43.1;;;28.3;;
73421;SDS011;61637;47.760;-122.022;2022-09-12T01:12:02;44.4;;;27.8;;
73421;SDS011;61637;47.760;-122.022;2022-09-12T01:14:00;43.1;;;29.5;;
73421;SDS011;61637;47.760;-122.022;2022-09-12T01:16:03;48.5;;;30.0;;
73421;SDS011;61637;47.760;-122.022;2022-09-12T01:18:08;44.3;;;29.2;;
73421;SDS011;61637;47.760;-122.022;2022-09-12T01:22:09;44.9;;;29.4;;
73421;SDS011;61637;47.760;-122.022;2022-09-12T01:24:17;45.5;;;29.9;;
73421;SDS011;61637;47.760;-122.022;2022-09-12T01:28:18;46.0;;;30.7;;
73421;SDS011;61637;47.760;-122.022;2022-09-12T01:32:08;45.5;;;29.6;;
73421;SDS011;61637;47.760;-122.022;2022-09-12T01:34:10;46.1;;;30.3;;
73421;SDS011;61637;47.760;-122.022;2022-09-12T01:36:13;43.4;;;28.5;;
73421;SDS011;61637;47.760;-122.022;2022-09-12T01:38:08;46.7;;;28.2;;
73421;SDS011;61637;47.760;-122.022;2022-09-12T01:40:06;43.6;;;27.8;;
73421;SDS011;61637;47.760;-122.022;2022-09-12T01:42:09;47.0;;;28.4;;
73421;SDS011;61637;47.760;-122.022;2022-09-12T01:44:04;43.6;;;28.0;;
73421;SDS011;61637;47.760;-122.022;2022-09-12T01:46:06;44.5;;;28.6;;
73421;SDS011;61637;47.760;-122.022;2022-09-12T01:48:07;45.5;;;28.7;;
73421;SDS011;61637;47.760;-122.022;2022-09-12T01:50:05;41.5;;;28.3;;
73421;SDS011;61637;47.760;-122.022;2022-09-12T01:52:05;44.9;;;28.1;;
73421;SDS011;61637;47.760;-122.022;2022-09-12T01:54:09;42.3;;;27.0;;
73421;SDS011;61637;47.760;-122.022;2022-09-12T01:56:08;47.8;;;28.3;;
73421;SDS011;61637;47.760;-122.022;2022-09-12T01:58:06;44.0;;;28.0;;
73421;SDS011;61637;47.760;-122.022;2022-09-12T02:00:04;44.6;;;26.8;;
73421;SDS011;61637;47.760;-122.022;2022-09-12T02:02:03;44.8;;;27.4;;
73421;SDS011;61637;47.760;-122.022;2022-09-12T02:04:07;44.0;;;27.4;;
73421;SDS011;61637;47.760;-122.022;2022-09-12T02:06:07;43.0;;;27.5;;
73421;SDS011;61637;47.760;-122.022;2022-09-12T02:08:05;40.5;;;27.0;;
73421;SDS011;61637;47.760;-122.022;2022-09-12T02:10:06;43.0;;;26.8;;
73421;SDS011;61637;47.760;-122.022;2022-09-12T02:12:03;42.3;;;27.5;;
73421;SDS011;61637;47.760;-122.022;2022-09-12T02:14:05;42.8;;;27.8;;
73421;SDS011;61637;47.760;-122.022;2022-09-12T02:16:06;42.4;;;27.0;;
73421;SDS011;61637;47.760;-122.022;2022-09-12T02:18:04;46.3;;;28.2;;
73421;SDS011;61637;47.760;-122.022;2022-09-12T02:20:04;44.9;;;27.6;;
73421;SDS011;61637;47.760;-122.022;2022-09-12T02:22:03;43.5;;;27.1;;
73421;SDS011;61637;47.760;-122.022;2022-09-12T02:24:02;44.4;;;27.1;;
73421;SDS011;61637;47.760;-122.022;2022-09-12T02:26:05;43.4;;;26.2;;
73421;SDS011;61637;47.760;-122.022;2022-09-12T02:28:05;43.0;;;26.7;;
73421;SDS011;61637;47.760;-122.022;2022-09-12T02:30:00;41.0;;;26.7;;
73421;SDS011;61637;47.760;-122.022;2022-09-12T02:32:04;46.9;;;27.2;;
73421;SDS011;61637;47.760;-122.022;2022-09-12T02:34:09;43.7;;;25.8;;
73421;SDS011;61637;47.760;-122.022;2022-09-12T02:36:06;41.2;;;25.5;;
73421;SDS011;61637;47.760;-122.022;2022-09-12T02:38:04;47.0;;;26.4;;
73421;SDS011;61637;47.760;-122.022;2022-09-12T02:40:02;44.7;;;26.0;;
73421;SDS011;61637;47.760;-122.022;2022-09-12T02:42:02;44.7;;;26.0;;
73421;SDS011;61637;47.760;-122.022;2022-09-12T02:44:01;43.3;;;26.5;;
73421;SDS011;61637;47.760;-122.022;2022-09-12T02:46:00;45.7;;;25.8;;
73421;SDS011;61637;47.760;-122.022;2022-09-12T02:48:04;42.7;;;25.5;;
73421;SDS011;61637;47.760;-122.022;2022-09-12T02:50:02;39.6;;;25.1;;
73421;SDS011;61637;47.760;-122.022;2022-09-12T02:52:02;38.6;;;25.1;;
73421;SDS011;61637;47.760;-122.022;2022-09-12T02:54:01;40.1;;;25.1;;
73421;SDS011;61637;47.760;-122.022;2022-09-12T02:56:02;41.3;;;24.8;;
73421;SDS011;61637;47.760;-122.022;2022-09-12T02:58:02;39.0;;;25.0;;
73421;SDS011;61637;47.760;-122.022;2022-09-12T03:00:02;42.9;;;24.6;;
73421;SDS011;61637;47.760;-122.022;2022-09-12T03:02:14;38.2;;;23.7;;
73421;SDS011;61637;47.760;-122.022;2022-09-12T03:04:21;39.9;;;24.8;;
73421;SDS011;61637;47.760;-122.022;2022-09-12T03:06:03;40.4;;;24.5;;
73421;SDS011;61637;47.760;-122.022;2022-09-12T03:08:13;41.2;;;24.6;;
73421;SDS011;61637;47.760;-122.022;2022-09-12T03:10:06;44.7;;;26.0;;
73421;SDS011;61637;47.760;-122.022;2022-09-12T03:12:07;43.0;;;26.4;;
73421;SDS011;61637;47.760;-122.022;2022-09-12T03:14:09;42.1;;;25.7;;
73421;SDS011;61637;47.760;-122.022;2022-09-12T03:16:10;40.1;;;25.4;;
73421;SDS011;61637;47.760;-122.022;2022-09-12T03:18:07;39.1;;;25.3;;
73421;SDS011;61637;47.760;-122.022;2022-09-12T03:20:06;40.3;;;24.5;;
73421;SDS011;61637;47.760;-122.022;2022-09-12T03:22:07;41.9;;;24.6;;
73421;SDS011;61637;47.760;-122.022;2022-09-12T03:24:11;41.3;;;23.8;;
73421;SDS011;61637;47.760;-122.022;2022-09-12T03:26:05;41.2;;;24.3;;
73421;SDS011;61637;47.760;-122.022;2022-09-12T03:28:05;39.5;;;24.2;;
73421;SDS011;61637;47.760;-122.022;2022-09-12T03:30:03;37.5;;;23.7;;
73421;SDS011;61637;47.760;-122.022;2022-09-12T03:32:01;38.2;;;24.1;;
73421;SDS011;61637;47.760;-122.022;2022-09-12T03:34:01;41.4;;;24.1;;
73421;SDS011;61637;47.760;-122.022;2022-09-12T03:36:01;37.9;;;24.7;;
73421;SDS011;61637;47.760;-122.022;2022-09-12T03:38:00;36.0;;;23.3;;
73421;SDS011;61637;47.760;-122.022;2022-09-12T03:40:01;45.0;;;25.2;;
73421;SDS011;61637;47.760;-122.022;2022-09-12T03:42:01;44.3;;;25.5;;
73421;SDS011;61637;47.760;-122.022;2022-09-12T03:44:01;38.2;;;24.3;;
73421;SDS011;61637;47.760;-122.022;2022-09-12T03:46:01;36.6;;;24.1;;
73421;SDS011;61637;47.760;-122.022;2022-09-12T03:48:01;39.4;;;23.7;;
73421;SDS011;61637;47.760;-122.022;2022-09-12T03:50:01;37.8;;;23.8;;
73421;SDS011;61637;47.760;-122.022;2022-09-12T03:52:01;39.0;;;24.4;;
73421;SDS011;61637;47.760;-122.022;2022-09-12T03:54:01;39.6;;;23.5;;
73421;SDS011;61637;47.760;-122.022;2022-09-12T03:56:05;39.2;;;24.1;;
73421;SDS011;61637;47.760;-122.022;2022-09-12T03:58:01;42.8;;;24.5;;
73421;SDS011;61637;47.760;-122.022;2022-09-12T04:00:02;41.6;;;24.7;;
73421;SDS011;61637;47.760;-122.022;2022-09-12T04:02:00;39.7;;;24.3;;
73421;SDS011;61637;47.760;-122.022;2022-09-12T04:04:01;40.5;;;24.5;;
73421;SDS011;61637;47.760;-122.022;2022-09-12T04:06:00;41.6;;;24.4;;
73421;SDS011;61637;47.760;-122.022;2022-09-12T04:08:01;38.0;;;24.7;;
73421;SDS011;61637;47.760;-122.022;2022-09-12T04:10:00;40.0;;;24.7;;
73421;SDS011;61637;47.760;-122.022;2022-09-12T04:12:01;41.5;;;24.9;;
73421;SDS011;61637;47.760;-122.022;2022-09-12T04:14:01;41.5;;;24.9;;
73421;SDS011;61637;47.760;-122.022;2022-09-12T04:16:01;39.3;;;24.5;;
73421;SDS011;61637;47.760;-122.022;2022-09-12T04:18:01;41.8;;;24.3;;
73421;SDS011;61637;47.760;-122.022;2022-09-12T04:20:01;41.1;;;23.4;;
73421;SDS011;61637;47.760;-122.022;2022-09-12T04:22:01;40.9;;;25.0;;
73421;SDS011;61637;47.760;-122.022;2022-09-12T04:24:01;42.6;;;24.5;;
73421;SDS011;61637;47.760;-122.022;2022-09-12T04:26:02;40.4;;;25.3;;
73421;SDS011;61637;47.760;-122.022;2022-09-12T04:28:01;42.9;;;24.8;;
73421;SDS011;61637;47.760;-122.022;2022-09-12T04:30:01;42.8;;;23.9;;
73421;SDS011;61637;47.760;-122.022;2022-09-12T04:32:01;43.6;;;25.0;;
73421;SDS011;61637;47.760;-122.022;2022-09-12T04:34:01;38.9;;;24.8;;
73421;SDS011;61637;47.760;-122.022;2022-09-12T04:36:06;39.3;;;24.5;;
73421;SDS011;61637;47.760;-122.022;2022-09-12T04:38:01;42.7;;;24.2;;
73421;SDS011;61637;47.760;-122.022;2022-09-12T04:40:01;39.8;;;23.7;;
73421;SDS011;61637;47.760;-122.022;2022-09-12T04:42:00;43.0;;;25.1;;
73421;SDS011;61637;47.760;-122.022;2022-09-12T04:44:03;39.5;;;24.3;;
73421;SDS011;61637;47.760;-122.022;2022-09-12T04:46:05;40.9;;;24.1;;
73421;SDS011;61637;47.760;-122.022;2022-09-12T04:48:01;42.8;;;24.4;;
73421;SDS011;61637;47.760;-122.022;2022-09-12T04:50:00;43.9;;;24.6;;
73421;SDS011;61637;47.760;-122.022;2022-09-12T04:52:01;39.9;;;24.5;;
73421;SDS011;61637;47.760;-122.022;2022-09-12T04:54:04;36.7;;;23.5;;
73421;SDS011;61637;47.760;-122.022;2022-09-12T04:56:01;40.6;;;23.9;;
73421;SDS011;61637;47.760;-122.022;2022-09-12T04:58:01;38.6;;;23.7;;
73421;SDS011;61637;47.760;-122.022;2022-09-12T05:00:02;40.7;;;23.5;;
73421;SDS011;61637;47.760;-122.022;2022-09-12T05:02:00;38.6;;;22.7;;
73421;SDS011;61637;47.760;-122.022;2022-09-12T05:04:01;39.0;;;24.0;;
73421;SDS011;61637;47.760;-122.022;2022-09-12T05:06:03;39.9;;;22.9;;
73421;SDS011;61637;47.760;-122.022;2022-09-12T05:08:01;39.9;;;22.7;;
73421;SDS011;61637;47.760;-122.022;2022-09-12T05:10:01;40.4;;;23.8;;
73421;SDS011;61637;47.760;-122.022;2022-09-12T05:12:01;39.0;;;23.4;;
73421;SDS011;61637;47.760;-122.022;2022-09-12T05:14:01;38.0;;;22.2;;
73421;SDS011;61637;47.760;-122.022;2022-09-12T05:16:03;37.9;;;22.7;;
73421;SDS011;61637;47.760;-122.022;2022-09-12T05:18:01;40.6;;;23.4;;
73421;SDS011;61637;47.760;-122.022;2022-09-12T05:20:01;46.1;;;23.4;;
73421;SDS011;61637;47.760;-122.022;2022-09-12T05:22:00;43.2;;;22.6;;
73421;SDS011;61637;47.760;-122.022;2022-09-12T05:24:01;42.6;;;23.6;;
73421;SDS011;61637;47.760;-122.022;2022-09-12T05:26:02;40.2;;;23.0;;
73421;SDS011;61637;47.760;-122.022;2022-09-12T05:28:01;40.8;;;22.9;;
73421;SDS011;61637;47.760;-122.022;2022-09-12T05:30:01;40.5;;;22.9;;
73421;SDS011;61637;47.760;-122.022;2022-09-12T05:32:01;46.0;;;23.8;;
73421;SDS011;61637;47.760;-122.022;2022-09-12T05:34:01;41.5;;;23.4;;
73421;SDS011;61637;47.760;-122.022;2022-09-12T05:36:02;38.1;;;22.3;;
73421;SDS011;61637;47.760;-122.022;2022-09-12T05:38:00;42.4;;;22.4;;
73421;SDS011;61637;47.760;-122.022;2022-09-12T05:40:01;38.9;;;21.3;;
73421;SDS011;61637;47.760;-122.022;2022-09-12T05:42:01;38.0;;;21.8;;
73421;SDS011;61637;47.760;-122.022;2022-09-12T05:44:03;41.8;;;22.2;;
73421;SDS011;61637;47.760;-122.022;2022-09-12T05:46:02;36.8;;;22.2;;
73421;SDS011;61637;47.760;-122.022;2022-09-12T05:48:01;36.7;;;20.9;;
73421;SDS011;61637;47.760;-122.022;2022-09-12T05:50:00;42.2;;;20.6;;
73421;SDS011;61637;47.760;-122.022;2022-09-12T05:52:01;37.1;;;20.4;;
73421;SDS011;61637;47.760;-122.022;2022-09-12T05:54:03;38.3;;;20.4;;
73421;SDS011;61637;47.760;-122.022;2022-09-12T05:56:01;37.1;;;20.7;;
73421;SDS011;61637;47.760;-122.022;2022-09-12T05:58:00;36.0;;;20.7;;
73421;SDS011;61637;47.760;-122.022;2022-09-12T06:00:01;38.8;;;21.7;;
73421;SDS011;61637;47.760;-122.022;2022-09-12T06:02:00;36.1;;;20.4;;
73421;SDS011;61637;47.760;-122.022;2022-09-12T06:04:03;36.6;;;20.1;;
73421;SDS011;61637;47.760;-122.022;2022-09-12T06:06:02;34.6;;;20.4;;
73421;SDS011;61637;47.760;-122.022;2022-09-12T06:08:01;35.7;;;19.3;;
73421;SDS011;61637;47.760;-122.022;2022-09-12T06:10:00;35.8;;;20.1;;
73421;SDS011;61637;47.760;-122.022;2022-09-12T06:12:01;35.9;;;19.3;;
73421;SDS011;61637;47.760;-122.022;2022-09-12T06:14:01;33.6;;;19.2;;
73421;SDS011;61637;47.760;-122.022;2022-09-12T06:16:04;34.8;;;19.3;;
73421;SDS011;61637;47.760;-122.022;2022-09-12T06:18:01;37.7;;;19.5;;
73421;SDS011;61637;47.760;-122.022;2022-09-12T06:20:01;37.4;;;19.4;;
73421;SDS011;61637;47.760;-122.022;2022-09-12T06:22:00;44.0;;;20.4;;
73421;SDS011;61637;47.760;-122.022;2022-09-12T06:24:01;40.7;;;20.3;;
73421;SDS011;61637;47.760;-122.022;2022-09-12T06:26:01;37.6;;;20.4;;
73421;SDS011;61637;47.760;-122.022;2022-09-12T06:28:01;34.9;;;20.7;;
73421;SDS011;61637;47.760;-122.022;2022-09-12T06:30:01;38.4;;;19.7;;
73421;SDS011;61637;47.760;-122.022;2022-09-12T06:32:01;35.9;;;20.6;;
73421;SDS011;61637;47.760;-122.022;2022-09-12T06:34:03;35.5;;;20.3;;
73421;SDS011;61637;47.760;-122.022;2022-09-12T06:36:03;33.6;;;19.6;;
73421;SDS011;61637;47.760;-122.022;2022-09-12T06:38:00;35.8;;;19.6;;
73421;SDS011;61637;47.760;-122.022;2022-09-12T06:40:02;41.4;;;20.9;;
73421;SDS011;61637;47.760;-122.022;2022-09-12T06:42:01;36.7;;;20.1;;
73421;SDS011;61637;47.760;-122.022;2022-09-12T06:44:01;38.8;;;21.4;;
73421;SDS011;61637;47.760;-122.022;2022-09-12T06:46:02;42.1;;;22.0;;
73421;SDS011;61637;47.760;-122.022;2022-09-12T06:48:01;41.2;;;21.1;;
73421;SDS011;61637;47.760;-122.022;2022-09-12T06:50:01;39.0;;;22.2;;
73421;SDS011;61637;47.760;-122.022;2022-09-12T06:52:01;40.8;;;22.0;;
73421;SDS011;61637;47.760;-122.022;2022-09-12T06:54:02;38.9;;;21.9;;
73421;SDS011;61637;47.760;-122.022;2022-09-12T06:56:03;39.9;;;21.5;;
73421;SDS011;61637;47.760;-122.022;2022-09-12T06:58:00;36.9;;;20.6;;
73421;SDS011;61637;47.760;-122.022;2022-09-12T07:00:01;40.0;;;21.9;;
73421;SDS011;61637;47.760;-122.022;2022-09-12T07:02:01;40.6;;;21.1;;
73421;SDS011;61637;47.760;-122.022;2022-09-12T07:04:02;40.4;;;21.4;;
73421;SDS011;61637;47.760;-122.022;2022-09-12T07:06:03;38.9;;;19.4;;
73421;SDS011;61637;47.760;-122.022;2022-09-12T07:08:01;39.7;;;20.7;;
73421;SDS011;61637;47.760;-122.022;2022-09-12T07:10:01;38.3;;;19.8;;
73421;SDS011;61637;47.760;-122.022;2022-09-12T07:12:01;39.6;;;19.1;;
73421;SDS011;61637;47.760;-122.022;2022-09-12T07:14:03;36.5;;;19.5;;
73421;SDS011;61637;47.760;-122.022;2022-09-12T07:16:01;36.8;;;19.0;;
73421;SDS011;61637;47.760;-122.022;2022-09-12T07:18:00;37.0;;;18.4;;
73421;SDS011;61637;47.760;-122.022;2022-09-12T07:20:01;36.3;;;18.5;;
73421;SDS011;61637;47.760;-122.022;2022-09-12T07:22:01;35.1;;;17.5;;
73421;SDS011;61637;47.760;-122.022;2022-09-12T07:24:01;35.7;;;17.3;;
73421;SDS011;61637;47.760;-122.022;2022-09-12T07:26:03;34.5;;;17.2;;
73421;SDS011;61637;47.760;-122.022;2022-09-12T07:28:00;35.6;;;15.8;;
73421;SDS011;61637;47.760;-122.022;2022-09-12T07:30:00;34.9;;;15.7;;
73421;SDS011;61637;47.760;-122.022;2022-09-12T07:32:01;30.3;;;14.2;;
73421;SDS011;61637;47.760;-122.022;2022-09-12T07:34:04;37.5;;;14.6;;
73421;SDS011;61637;47.760;-122.022;2022-09-12T07:36:01;34.7;;;15.2;;
73421;SDS011;61637;47.760;-122.022;2022-09-12T07:38:02;35.9;;;15.3;;
73421;SDS011;61637;47.760;-122.022;2022-09-12T07:40:01;34.8;;;14.3;;
73421;SDS011;61637;47.760;-122.022;2022-09-12T07:42:01;32.0;;;14.4;;
73421;SDS011;61637;47.760;-122.022;2022-09-12T07:44:01;37.5;;;14.3;;
73421;SDS011;61637;47.760;-122.022;2022-09-12T07:46:00;33.7;;;14.4;;
73421;SDS011;61637;47.760;-122.022;2022-09-12T07:48:01;37.2;;;16.1;;
73421;SDS011;61637;47.760;-122.022;2022-09-12T07:50:01;35.9;;;17.0;;
73421;SDS011;61637;47.760;-122.022;2022-09-12T07:52:01;35.2;;;17.4;;
73421;SDS011;61637;47.760;-122.022;2022-09-12T07:54:00;33.0;;;16.7;;
73421;SDS011;61637;47.760;-122.022;2022-09-12T07:56:01;35.6;;;17.0;;
73421;SDS011;61637;47.760;-122.022;2022-09-12T07:58:00;34.2;;;17.0;;
73421;SDS011;61637;47.760;-122.022;2022-09-12T08:00:01;32.6;;;14.8;;
73421;SDS011;61637;47.760;-122.022;2022-09-12T08:02:01;34.3;;;15.8;;
73421;SDS011;61637;47.760;-122.022;2022-09-12T08:04:01;31.9;;;16.0;;
73421;SDS011;61637;47.760;-122.022;2022-09-12T08:06:03;34.0;;;15.7;;
73421;SDS011;61637;47.760;-122.022;2022-09-12T08:08:00;31.6;;;15.3;;
73421;SDS011;61637;47.760;-122.022;2022-09-12T08:10:01;32.6;;;15.3;;
73421;SDS011;61637;47.760;-122.022;2022-09-12T08:12:01;35.5;;;15.6;;
73421;SDS011;61637;47.760;-122.022;2022-09-12T08:14:01;31.6;;;14.3;;
73421;SDS011;61637;47.760;-122.022;2022-09-12T08:16:03;34.4;;;15.3;;
73421;SDS011;61637;47.760;-122.022;2022-09-12T08:18:01;30.7;;;14.7;;
73421;SDS011;61637;47.760;-122.022;2022-09-12T08:20:01;32.2;;;14.7;;
73421;SDS011;61637;47.760;-122.022;2022-09-12T08:22:00;34.7;;;15.3;;
73421;SDS011;61637;47.760;-122.022;2022-09-12T08:24:03;29.8;;;13.8;;
73421;SDS011;61637;47.760;-122.022;2022-09-12T08:26:03;35.0;;;14.4;;
73421;SDS011;61637;47.760;-122.022;2022-09-12T08:28:01;31.7;;;13.7;;
73421;SDS011;61637;47.760;-122.022;2022-09-12T08:30:00;32.9;;;13.8;;
73421;SDS011;61637;47.760;-122.022;2022-09-12T08:32:00;32.2;;;14.1;;
73421;SDS011;61637;47.760;-122.022;2022-09-12T08:34:01;31.6;;;14.0;;
73421;SDS011;61637;47.760;-122.022;2022-09-12T08:36:04;29.6;;;13.7;;
73421;SDS011;61637;47.760;-122.022;2022-09-12T08:38:01;27.3;;;12.7;;
73421;SDS011;61637;47.760;-122.022;2022-09-12T08:40:01;29.1;;;12.8;;
73421;SDS011;61637;47.760;-122.022;2022-09-12T08:42:02;32.1;;;14.2;;
73421;SDS011;61637;47.760;-122.022;2022-09-12T08:44:15;33.9;;;13.7;;
73421;SDS011;61637;47.760;-122.022;2022-09-12T08:46:06;33.4;;;13.0;;
73421;SDS011;61637;47.760;-122.022;2022-09-12T08:48:02;30.7;;;13.8;;
73421;SDS011;61637;47.760;-122.022;2022-09-12T08:50:10;29.7;;;13.7;;
73421;SDS011;61637;47.760;-122.022;2022-09-12T08:52:06;29.8;;;12.9;;
73421;SDS011;61637;47.760;-122.022;2022-09-12T08:54:02;31.3;;;14.2;;
73421;SDS011;61637;47.760;-122.022;2022-09-12T08:56:01;30.4;;;14.4;;
73421;SDS011;61637;47.760;-122.022;2022-09-12T08:58:10;30.9;;;13.7;;
73421;SDS011;61637;47.760;-122.022;2022-09-12T09:00:03;30.6;;;13.9;;
73421;SDS011;61637;47.760;-122.022;2022-09-12T09:02:01;35.7;;;14.3;;
73421;SDS011;61637;47.760;-122.022;2022-09-12T09:04:11;35.8;;;14.3;;
73421;SDS011;61637;47.760;-122.022;2022-09-12T09:06:10;28.8;;;13.7;;
73421;SDS011;61637;47.760;-122.022;2022-09-12T09:08:13;32.0;;;14.1;;
73421;SDS011;61637;47.760;-122.022;2022-09-12T09:10:06;29.4;;;13.7;;
73421;SDS011;61637;47.760;-122.022;2022-09-12T09:12:05;33.4;;;14.0;;
73421;SDS011;61637;47.760;-122.022;2022-09-12T09:14:12;32.7;;;14.1;;
73421;SDS011;61637;47.760;-122.022;2022-09-12T09:16:06;32.7;;;13.3;;
73421;SDS011;61637;47.760;-122.022;2022-09-12T09:18:03;32.7;;;13.3;;
73421;SDS011;61637;47.760;-122.022;2022-09-12T09:20:04;27.2;;;13.8;;
73421;SDS011;61637;47.760;-122.022;2022-09-12T09:22:03;32.6;;;14.4;;
73421;SDS011;61637;47.760;-122.022;2022-09-12T09:24:04;31.7;;;14.1;;
73421;SDS011;61637;47.760;-122.022;2022-09-12T09:26:05;32.2;;;14.1;;
73421;SDS011;61637;47.760;-122.022;2022-09-12T09:28:04;27.5;;;12.7;;
73421;SDS011;61637;47.760;-122.022;2022-09-12T09:30:02;31.0;;;13.5;;
73421;SDS011;61637;47.760;-122.022;2022-09-12T09:32:08;30.1;;;13.3;;
73421;SDS011;61637;47.760;-122.022;2022-09-12T09:34:08;31.0;;;13.0;;
73421;SDS011;61637;47.760;-122.022;2022-09-12T09:36:07;28.0;;;13.4;;
73421;SDS011;61637;47.760;-122.022;2022-09-12T09:38:07;32.4;;;13.7;;
73421;SDS011;61637;47.760;-122.022;2022-09-12T09:40:07;31.0;;;15.0;;
73421;SDS011;61637;47.760;-122.022;2022-09-12T09:42:13;34.7;;;14.9;;
73421;SDS011;61637;47.760;-122.022;2022-09-12T09:44:01;34.3;;;14.5;;
73421;SDS011;61637;47.760;-122.022;2022-09-12T09:46:00;32.2;;;14.4;;
73421;SDS011;61637;47.760;-122.022;2022-09-12T09:48:12;32.6;;;14.6;;
73421;SDS011;61637;47.760;-122.022;2022-09-12T09:50:01;30.2;;;14.1;;
73421;SDS011;61637;47.760;-122.022;2022-09-12T09:52:02;32.5;;;13.9;;
73421;SDS011;61637;47.760;-122.022;2022-09-12T09:54:04;35.0;;;13.4;;
73421;SDS011;61637;47.760;-122.022;2022-09-12T09:56:06;28.9;;;13.5;;
73421;SDS011;61637;47.760;-122.022;2022-09-12T09:58:01;33.3;;;14.0;;
73421;SDS011;61637;47.760;-122.022;2022-09-12T10:02:08;31.1;;;13.7;;
73421;SDS011;61637;47.760;-122.022;2022-09-12T10:04:01;28.4;;;13.3;;
73421;SDS011;61637;47.760;-122.022;2022-09-12T10:06:05;31.3;;;13.5;;
73421;SDS011;61637;47.760;-122.022;2022-09-12T10:08:01;29.9;;;13.8;;
73421;SDS011;61637;47.760;-122.022;2022-09-12T10:10:06;31.7;;;14.1;;
73421;SDS011;61637;47.760;-122.022;2022-09-12T10:12:19;35.4;;;14.9;;
73421;SDS011;61637;47.760;-122.022;2022-09-12T10:14:01;30.5;;;13.8;;
73421;SDS011;61637;47.760;-122.022;2022-09-12T10:16:02;34.1;;;14.1;;
73421;SDS011;61637;47.760;-122.022;2022-09-12T10:18:00;31.2;;;14.0;;
73421;SDS011;61637;47.760;-122.022;2022-09-12T10:20:01;29.9;;;14.2;;
73421;SDS011;61637;47.760;-122.022;2022-09-12T10:22:01;31.5;;;14.1;;
73421;SDS011;61637;47.760;-122.022;2022-09-12T10:24:19;33.5;;;14.7;;
73421;SDS011;61637;47.760;-122.022;2022-09-12T10:26:03;32.7;;;14.7;;
73421;SDS011;61637;47.760;-122.022;2022-09-12T10:28:01;33.7;;;14.5;;
73421;SDS011;61637;47.760;-122.022;2022-09-12T10:30:03;38.6;;;15.7;;
73421;SDS011;61637;47.760;-122.022;2022-09-12T10:32:02;33.9;;;15.2;;
73421;SDS011;61637;47.760;-122.022;2022-09-12T10:34:00;32.9;;;14.9;;
73421;SDS011;61637;47.760;-122.022;2022-09-12T10:36:01;29.5;;;13.8;;
73421;SDS011;61637;47.760;-122.022;2022-09-12T10:38:04;31.6;;;14.0;;
73421;SDS011;61637;47.760;-122.022;2022-09-12T10:40:03;29.4;;;14.1;;
73421;SDS011;61637;47.760;-122.022;2022-09-12T10:42:02;32.1;;;14.4;;
73421;SDS011;61637;47.760;-122.022;2022-09-12T10:44:05;34.9;;;14.6;;
73421;SDS011;61637;47.760;-122.022;2022-09-12T10:48:18;36.3;;;14.5;;
73421;SDS011;61637;47.760;-122.022;2022-09-12T10:52:20;29.6;;;14.0;;
73421;SDS011;61637;47.760;-122.022;2022-09-12T10:54:03;34.3;;;14.3;;
73421;SDS011;61637;47.760;-122.022;2022-09-12T10:56:05;33.5;;;14.0;;
73421;SDS011;61637;47.760;-122.022;2022-09-12T10:58:14;31.9;;;14.1;;
73421;SDS011;61637;47.760;-122.022;2022-09-12T11:00:08;34.6;;;14.7;;
73421;SDS011;61637;47.760;-122.022;2022-09-12T11:02:13;34.8;;;15.0;;
73421;SDS011;61637;47.760;-122.022;2022-09-12T11:04:17;33.2;;;14.6;;
73421;SDS011;61637;47.760;-122.022;2022-09-12T11:06:01;35.6;;;15.1;;
73421;SDS011;61637;47.760;-122.022;2022-09-12T11:08:06;35.9;;;14.8;;
73421;SDS011;61637;47.760;-122.022;2022-09-12T11:10:09;35.5;;;15.0;;
73421;SDS011;61637;47.760;-122.022;2022-09-12T11:12:07;33.5;;;15.2;;
73421;SDS011;61637;47.760;-122.022;2022-09-12T11:14:10;36.3;;;15.2;;
73421;SDS011;61637;47.760;-122.022;2022-09-12T11:16:10;30.1;;;14.3;;
73421;SDS011;61637;47.760;-122.022;2022-09-12T11:18:09;33.6;;;14.7;;
73421;SDS011;61637;47.760;-122.022;2022-09-12T11:20:15;30.6;;;14.2;;
73421;SDS011;61637;47.760;-122.022;2022-09-12T11:22:11;36.5;;;14.6;;
73421;SDS011;61637;47.760;-122.022;2022-09-12T11:24:15;31.7;;;14.4;;
73421;SDS011;61637;47.760;-122.022;2022-09-12T11:26:10;30.9;;;14.0;;
73421;SDS011;61637;47.760;-122.022;2022-09-12T11:28:15;30.2;;;14.1;;
73421;SDS011;61637;47.760;-122.022;2022-09-12T11:30:03;33.0;;;13.7;;
73421;SDS011;61637;47.760;-122.022;2022-09-12T11:32:12;30.4;;;14.2;;
73421;SDS011;61637;47.760;-122.022;2022-09-12T11:34:07;33.0;;;14.2;;
73421;SDS011;61637;47.760;-122.022;2022-09-12T11:36:05;32.0;;;14.4;;
73421;SDS011;61637;47.760;-122.022;2022-09-12T11:38:16;32.6;;;14.0;;
73421;SDS011;61637;47.760;-122.022;2022-09-12T11:40:11;29.9;;;13.1;;
73421;SDS011;61637;47.760;-122.022;2022-09-12T11:42:03;28.4;;;13.6;;